Time;durP1;ratioP1;P1;durP2;ratioP2;P2;SDS_P1;SDS_P2;PMS_P1;PMS_P2;Temp;Humidity;BMP_temperature;BMP_pressure;BME280_temperature;BME280_humidity;BME280_pressure;Samples;Min_cycle;Max_cycle;Signal;HPM_P1;HPM_P2
2024/04/25 00:00:33;;;;;;;1.55;0.95;;;17.10;59.40;;;;;;11208356;26;20076;-27
2024/04/25 00:05:39;;;;;;;1.38;0.80;;;17.00;59.40;;;;;;11208104;26;20007;-27
2024/04/25 00:10:42;;;;;;;0.98;0.70;;;17.00;59.40;;;;;;11208026;26;20017;-26
2024/04/25 00:15:45;;;;;;;1.50;0.60;;;17.00;59.40;;;;;;11207757;26;20462;-28
2024/04/25 00:20:51;;;;;;;0.98;0.70;;;17.00;59.40;;;;;;11207589;26;20006;-28
2024/04/25 00:25:54;;;;;;;1.75;0.90;;;16.90;59.40;;;;;;11207575;26;20000;-27
2024/04/25 00:30:57;;;;;;;1.40;0.90;;;16.90;59.40;;;;;;11207192;26;20012;-26
2024/04/25 00:36:03;;;;;;;1.10;0.70;;;16.90;59.40;;;;;;11207339;26;20003;-29
2024/04/25 00:41:07;;;;;;;1.05;0.90;;;16.90;59.50;;;;;;11207058;26;20010;-27
2024/04/25 00:46:10;;;;;;;1.35;1.05;;;16.90;59.50;;;;;;11207033;26;20007;-29
2024/04/25 00:51:16;;;;;;;1.63;1.00;;;16.90;59.50;;;;;;11206510;26;20008;-30
2024/04/25 00:56:20;;;;;;;1.50;1.00;;;16.80;59.40;;;;;;11206313;26;20000;-27
2024/04/25 01:01:24;;;;;;;1.25;0.82;;;16.80;59.40;;;;;;11206140;26;20458;-30
2024/04/25 01:06:31;;;;;;;1.55;1.05;;;16.80;59.40;;;;;;11212554;26;20003;-28
2024/04/25 01:11:35;;;;;;;1.05;0.90;;;16.80;59.50;;;;;;11214094;26;20011;-26
2024/04/25 01:16:38;;;;;;;1.20;1.05;;;16.80;59.50;;;;;;11213300;26;20017;-27
2024/04/25 01:21:44;;;;;;;1.08;0.98;;;16.80;59.50;;;;;;11213170;26;20031;-28
2024/04/25 01:26:50;;;;;;;1.30;1.15;;;16.80;59.50;;;;;;11213029;26;20014;-27
2024/04/25 01:31:53;;;;;;;1.25;1.10;;;16.80;59.50;;;;;;11212927;26;20007;-23
2024/04/25 01:36:56;;;;;;;1.10;0.90;;;16.70;59.50;;;;;;11212953;26;20003;-29
2024/04/25 01:42:02;;;;;;;1.17;1.00;;;16.70;59.50;;;;;;11212572;26;20012;-25
2024/04/25 01:47:06;;;;;;;1.23;1.00;;;16.70;59.50;;;;;;11212402;26;20014;-23
2024/04/25 01:52:09;;;;;;;1.42;1.08;;;16.70;59.50;;;;;;11212145;26;20027;-26
2024/04/25 01:57:15;;;;;;;2.03;1.30;;;16.70;59.50;;;;;;11211991;26;20011;-26
2024/04/25 02:02:18;;;;;;;1.40;1.10;;;16.60;59.50;;;;;;11212005;26;20007;-26
2024/04/25 02:07:21;;;;;;;2.33;1.27;;;16.60;59.40;;;;;;11211614;26;20010;-26
2024/04/25 02:12:27;;;;;;;2.25;1.13;;;16.60;59.50;;;;;;11211627;26;19996;-25
2024/04/25 02:17:30;;;;;;;2.50;1.40;;;16.60;59.50;;;;;;11211060;26;20338;-30
2024/04/25 02:28:01;;;;;;;1.13;1.02;;;16.60;59.50;;;;;;11112389;26;20481;-25
2024/04/25 02:33:04;;;;;;;1.88;1.10;;;16.50;59.50;;;;;;11211028;26;20014;-29
2024/04/25 02:38:07;;;;;;;1.80;1.35;;;16.50;59.60;;;;;;11211418;26;20010;-28
2024/04/25 02:43:13;;;;;;;1.58;1.27;;;16.50;59.60;;;;;;11210748;26;20014;-27
2024/04/25 02:48:16;;;;;;;1.85;1.23;;;16.50;59.50;;;;;;11210580;26;20469;-27
2024/04/25 02:53:20;;;;;;;1.88;1.20;;;16.50;59.60;;;;;;11210327;26;20015;-28
2024/04/25 02:58:26;;;;;;;1.90;1.30;;;16.50;59.50;;;;;;11210429;26;20489;-28
2024/04/25 03:03:29;;;;;;;1.95;1.20;;;16.40;59.50;;;;;;11210132;26;20007;-28
2024/04/25 03:08:32;;;;;;;1.65;1.13;;;16.40;59.50;;;;;;11210119;26;20003;-28
2024/04/25 03:13:38;;;;;;;1.77;1.27;;;16.40;59.50;;;;;;11209804;26;20008;-26
2024/04/25 03:18:41;;;;;;;1.50;1.40;;;16.40;59.50;;;;;;11209876;26;20015;-27
2024/04/25 03:23:45;;;;;;;2.13;1.45;;;16.60;59.20;;;;;;11209503;26;20007;-26
2024/04/25 03:28:50;;;;;;;1.63;1.20;;;17.10;58.40;;;;;;11209330;26;20022;-27
2024/04/25 03:33:54;;;;;;;1.70;1.10;;;17.50;57.00;;;;;;11209582;26;20350;-24
2024/04/25 03:38:57;;;;;;;1.65;1.30;;;17.70;56.70;;;;;;11209754;26;20003;-26
2024/04/25 03:44:03;;;;;;;1.55;1.10;;;18.00;56.10;;;;;;11208977;26;20007;-25
2024/04/25 03:49:08;;;;;;;1.45;1.10;;;18.20;55.70;;;;;;11209013;26;20041;-30
2024/04/25 03:54:11;;;;;;;1.73;1.20;;;18.40;55.40;;;;;;11208861;26;19995;-28
2024/04/25 03:59:17;;;;;;;1.75;1.20;;;18.50;55.30;;;;;;11209175;26;20000;-28
2024/04/25 04:04:21;;;;;;;1.50;1.17;;;18.60;55.20;;;;;;11208242;26;20077;-28
2024/04/25 04:09:24;;;;;;;1.73;1.40;;;18.60;55.10;;;;;;11208338;26;20008;-29
2024/04/25 04:14:30;;;;;;;1.30;1.10;;;18.60;55.10;;;;;;11207707;26;20000;-27
2024/04/25 04:19:33;;;;;;;1.40;1.10;;;18.70;55.20;;;;;;11207708;26;20357;-27
2024/04/25 04:24:36;;;;;;;1.13;0.98;;;18.60;55.40;;;;;;11207589;26;20014;-29
2024/04/25 04:29:42;;;;;;;1.23;1.05;;;18.60;55.40;;;;;;11207590;26;20000;-30
2024/04/25 04:34:46;;;;;;;1.20;1.10;;;18.50;55.60;;;;;;11206904;26;20000;-27
2024/04/25 04:39:49;;;;;;;1.23;0.93;;;18.50;55.70;;;;;;11211125;26;20343;-27
2024/04/25 04:44:55;;;;;;;1.67;1.15;;;18.50;55.80;;;;;;11214362;26;20000;-28
2024/04/25 04:49:58;;;;;;;1.58;1.10;;;18.40;55.90;;;;;;11214189;26;20018;-29
2024/04/25 04:55:01;;;;;;;0.93;0.82;;;18.30;56.00;;;;;;11213593;26;20014;-28
2024/04/25 05:00:09;;;;;;;2.03;1.02;;;18.40;56.20;;;;;;11214431;26;20015;-30
2024/04/25 05:05:12;;;;;;;1.27;1.10;;;18.30;56.40;;;;;;11213691;26;20353;-26
2024/04/25 05:10:15;;;;;;;1.67;1.10;;;18.20;56.70;;;;;;11213914;26;20057;-28
2024/04/25 05:15:21;;;;;;;1.27;1.00;;;18.20;56.80;;;;;;11213413;26;20080;-26
2024/04/25 05:20:24;;;;;;;1.20;1.10;;;18.10;56.70;;;;;;11213233;26;19996;-28
2024/04/25 05:25:28;;;;;;;1.08;0.90;;;18.10;56.70;;;;;;11213025;26;20011;-26
2024/04/25 05:30:34;;;;;;;0.80;0.70;;;18.10;56.70;;;;;;11212916;26;19996;-27
2024/04/25 05:35:37;;;;;;;1.02;0.73;;;18.10;56.90;;;;;;11213411;26;20080;-29
2024/04/25 05:40:41;;;;;;;2.03;1.27;;;18.20;56.80;;;;;;11212929;26;19999;-29
2024/04/25 05:45:47;;;;;;;3.65;1.70;;;18.30;56.50;;;;;;11212556;26;20015;-26
2024/04/25 05:50:50;;;;;;;6.53;2.35;;;18.50;56.10;;;;;;11210829;26;20003;-29
2024/04/25 05:55:53;;;;;;;10.50;2.70;;;18.50;56.00;;;;;;11212230;26;20007;-31
2024/04/25 06:00:59;;;;;;;7.50;2.85;;;18.30;56.10;;;;;;11212070;26;20031;-27
2024/04/25 06:06:02;;;;;;;5.10;2.92;;;18.30;56.20;;;;;;11211928;26;19996;-26
2024/04/25 06:11:06;;;;;;;5.78;2.80;;;18.20;56.20;;;;;;11211743;26;20008;-28
2024/04/25 06:16:12;;;;;;;21.17;4.20;;;18.20;55.90;;;;;;11211578;26;19999;-28
2024/04/25 06:21:15;;;;;;;18.83;3.63;;;18.40;56.70;;;;;;11211547;26;20014;-29
2024/04/25 06:26:19;;;;;;;8.32;3.30;;;18.70;56.60;;;;;;11211399;26;20011;-28
2024/04/25 06:31:25;;;;;;;7.10;3.50;;;18.80;55.90;;;;;;11211120;26;19999;-27
2024/04/25 06:36:31;;;;;;;19.17;4.63;;;18.90;55.70;;;;;;11210941;26;20004;-26
2024/04/25 06:41:34;;;;;;;9.32;3.80;;;19.00;55.00;;;;;;11211028;26;20449;-26
2024/04/25 06:46:40;;;;;;;10.13;4.15;;;19.20;54.40;;;;;;11210798;26;20014;-27
2024/04/25 06:51:44;;;;;;;16.77;4.10;;;19.20;53.70;;;;;;11210621;26;20454;-33
2024/04/25 06:56:47;;;;;;;8.50;3.53;;;19.40;53.40;;;;;;11210476;26;20000;-27
2024/04/25 07:01:54;;;;;;;24.08;3.78;;;19.40;52.60;;;;;;11209794;26;20014;-27
2024/04/25 07:06:57;;;;;;;5.72;3.60;;;19.60;52.30;;;;;;11210218;26;20000;-26
2024/04/25 07:12:00;;;;;;;9.38;3.42;;;19.70;52.30;;;;;;11210451;26;20000;-28
2024/04/25 07:17:06;;;;;;;16.60;3.45;;;19.70;51.80;;;;;;11209831;26;19995;-28
2024/04/25 07:22:10;;;;;;;10.35;3.72;;;19.80;51.40;;;;;;11210041;26;20610;-28
2024/04/25 07:27:13;;;;;;;6.35;3.50;;;19.70;50.70;;;;;;11209631;26;19999;-26
2024/04/25 07:32:19;;;;;;;7.43;4.00;;;19.70;49.80;;;;;;11209625;26;20018;-28
2024/04/25 07:37:25;;;;;;;6.30;3.45;;;19.70;49.30;;;;;;11209692;26;20551;-28
2024/04/25 07:42:28;;;;;;;5.93;4.00;;;19.70;49.20;;;;;;11209251;26;20006;-29
2024/04/25 07:47:35;;;;;;;29.98;7.88;;;19.70;49.10;;;;;;11209523;26;20015;-29
2024/04/25 07:52:38;;;;;;;52.00;11.88;;;19.70;55.70;;;;;;11208852;26;20007;-32
2024/04/25 07:57:42;;;;;;;29.80;10.57;;;19.70;53.80;;;;;;11209175;26;20007;-28
2024/04/25 08:02:48;;;;;;;16.67;8.68;;;19.70;51.80;;;;;;11208634;26;20033;-28
2024/04/25 08:07:51;;;;;;;13.15;8.85;;;19.70;49.90;;;;;;11208211;26;20000;-28
2024/04/25 08:12:54;;;;;;;10.73;8.20;;;19.70;48.40;;;;;;11206754;26;20019;-30
2024/04/25 08:18:00;;;;;;;7.93;7.13;;;19.60;48.00;;;;;;11208001;26;20007;-25
2024/04/25 08:23:03;;;;;;;6.80;6.15;;;19.40;47.60;;;;;;11208171;26;20000;-27
2024/04/25 08:28:07;;;;;;;8.25;5.78;;;19.50;47.40;;;;;;11207629;26;20015;-27
2024/04/25 08:33:13;;;;;;;6.90;5.38;;;19.50;46.60;;;;;;11207152;26;19999;-26
2024/04/25 08:38:16;;;;;;;6.57;4.55;;;19.50;45.60;;;;;;11207347;26;20366;-30
2024/04/25 08:43:20;;;;;;;4.03;3.55;;;19.30;44.60;;;;;;11207011;26;20077;-29
2024/04/25 08:48:25;;;;;;;5.43;3.45;;;19.20;43.90;;;;;;11206826;26;20035;-27
2024/04/25 08:53:29;;;;;;;4.57;3.05;;;19.30;44.20;;;;;;11206575;26;20011;-27
2024/04/25 08:58:32;;;;;;;8.00;2.60;;;19.40;45.00;;;;;;11206445;26;20354;-25
2024/04/25 09:03:38;;;;;;;5.45;2.40;;;19.50;46.30;;;;;;11208752;26;20014;-27
2024/04/25 09:08:42;;;;;;;7.07;2.45;;;19.60;46.00;;;;;;11225663;26;20339;-26
2024/04/25 09:13:53;;;;;;;3.30;1.98;;;19.70;45.80;;;;;;11206157;26;20764;-28
2024/04/25 09:18:59;;;;;;;3.72;1.67;;;19.50;46.60;;;;;;11206427;26;20393;-26
2024/04/25 09:24:02;;;;;;;5.40;1.80;;;19.40;47.00;;;;;;11206711;26;20084;-28
2024/04/25 09:29:05;;;;;;;18.70;4.70;;;19.50;48.50;;;;;;11213289;26;19995;-28
2024/04/25 09:34:11;;;;;;;24.20;5.75;;;19.60;48.70;;;;;;11212900;26;20011;-27
2024/04/25 09:39:15;;;;;;;23.13;4.40;;;19.50;49.50;;;;;;11212871;26;20474;-24
2024/04/25 09:44:18;;;;;;;19.50;4.70;;;19.50;49.80;;;;;;11212595;26;20554;-27
2024/04/25 09:49:26;;;;;;;17.13;4.20;;;19.50;50.30;;;;;;11212593;26;20015;-28
2024/04/25 09:54:30;;;;;;;17.55;4.30;;;19.50;50.60;;;;;;11212309;26;20015;-29
2024/04/25 09:59:38;;;;;;;16.27;3.72;;;19.40;50.70;;;;;;11212815;26;20014;-28
2024/04/25 10:04:44;;;;;;;16.95;3.92;;;19.40;51.00;;;;;;11212071;26;20072;-29
2024/04/25 10:09:48;;;;;;;17.55;3.88;;;19.30;51.30;;;;;;11212204;26;19999;-27
2024/04/25 10:14:59;;;;;;;10.43;3.70;;;19.20;51.50;;;;;;11211617;26;20010;-27
2024/04/25 10:20:07;;;;;;;8.70;3.00;;;19.20;51.70;;;;;;11211600;26;20560;-29
2024/04/25 10:25:14;;;;;;;12.02;3.30;;;19.00;52.10;;;;;;11211550;26;20000;-28
2024/04/25 10:30:18;;;;;;;21.73;3.38;;;19.00;52.10;;;;;;11211395;26;20040;-28
2024/04/25 10:35:24;;;;;;;8.27;3.10;;;19.10;52.20;;;;;;11210084;26;20007;-28
2024/04/25 10:40:28;;;;;;;8.95;2.70;;;19.10;52.20;;;;;;11211198;26;20032;-28
2024/04/25 10:45:32;;;;;;;5.78;2.70;;;19.10;52.30;;;;;;11211645;26;20000;-29
2024/04/25 10:50:37;;;;;;;7.25;2.47;;;19.00;52.60;;;;;;11210718;26;20013;-27
2024/04/25 10:55:42;;;;;;;7.32;2.40;;;18.90;52.80;;;;;;11210877;26;19995;-30
2024/04/25 11:00:45;;;;;;;6.00;2.28;;;18.90;52.90;;;;;;11210551;26;19999;-33
2024/04/25 11:05:51;;;;;;;6.13;2.00;;;18.80;53.10;;;;;;11210185;26;20353;-30
2024/04/25 11:10:55;;;;;;;4.90;2.17;;;18.80;53.20;;;;;;11210081;26;20013;-29
2024/04/25 11:15:58;;;;;;;3.60;1.95;;;18.80;53.00;;;;;;11209931;26;20367;-28
2024/04/25 11:21:04;;;;;;;6.90;1.98;;;18.80;52.90;;;;;;11212565;26;20014;-26
2024/04/25 11:26:08;;;;;;;6.82;1.73;;;18.80;52.80;;;;;;11209598;26;19996;-29
2024/04/25 11:31:11;;;;;;;4.15;1.75;;;18.90;53.00;;;;;;11208458;26;20113;-27
2024/04/25 11:36:25;;;;;;;5.30;1.70;;;18.80;53.00;;;;;;11227797;26;20030;-28
2024/04/25 11:41:29;;;;;;;4.75;2.03;;;18.80;53.00;;;;;;11209515;26;20446;-28
2024/04/25 11:46:32;;;;;;;4.75;2.08;;;18.80;53.10;;;;;;11208767;26;19999;-30
2024/04/25 11:51:38;;;;;;;3.25;1.55;;;18.80;53.10;;;;;;11209009;26;20419;-28
2024/04/25 11:56:42;;;;;;;6.45;1.40;;;18.80;53.10;;;;;;11208778;26;20013;-28
2024/04/25 12:01:45;;;;;;;5.22;1.40;;;18.90;52.90;;;;;;11208312;26;20000;-29
2024/04/25 12:06:51;;;;;;;4.55;1.70;;;18.90;52.90;;;;;;11208364;26;20004;-29
2024/04/25 12:11:54;;;;;;;5.60;1.50;;;18.80;52.80;;;;;;11208991;26;20014;-27
2024/04/25 12:16:57;;;;;;;3.17;1.40;;;18.80;52.90;;;;;;11207801;26;20014;-27
2024/04/25 12:22:03;;;;;;;9.23;1.80;;;18.80;53.00;;;;;;11208557;26;20012;-29
2024/04/25 12:27:06;;;;;;;6.03;1.40;;;18.80;53.20;;;;;;11207691;26;20010;-28
2024/04/25 12:32:10;;;;;;;9.68;2.70;;;18.80;53.20;;;;;;11207107;26;20474;-29
2024/04/25 12:37:16;;;;;;;5.88;3.10;;;18.80;53.40;;;;;;11207682;26;20014;-30
2024/04/25 12:42:22;;;;;;;8.63;4.05;;;18.80;53.50;;;;;;11207274;26;20339;-29
2024/04/25 12:47:25;;;;;;;8.20;4.93;;;18.80;53.70;;;;;;11206724;26;20054;-28
2024/04/25 12:52:31;;;;;;;11.27;5.55;;;18.80;53.80;;;;;;11206706;26;19996;-26
2024/04/25 12:57:34;;;;;;;10.32;5.57;;;18.80;53.90;;;;;;11206654;26;20350;-27
2024/04/25 13:02:38;;;;;;;11.65;5.50;;;18.80;53.80;;;;;;11213018;26;20527;-27
2024/04/25 13:07:44;;;;;;;8.10;4.72;;;18.80;53.70;;;;;;11213677;26;20011;-27
2024/04/25 13:12:47;;;;;;;11.35;4.55;;;18.80;53.70;;;;;;11211223;26;20007;-28
2024/04/25 13:17:50;;;;;;;6.68;4.63;;;18.70;53.90;;;;;;11212307;26;19999;-29
2024/04/25 13:22:56;;;;;;;14.68;4.35;;;18.70;54.00;;;;;;11213548;26;20476;-29
2024/04/25 13:27:59;;;;;;;10.48;3.92;;;18.90;54.00;;;;;;11213329;26;20011;-29
2024/04/25 13:33:02;;;;;;;14.73;3.92;;;18.80;54.00;;;;;;11212948;26;20465;-27
2024/04/25 13:38:08;;;;;;;12.95;3.53;;;19.00;54.50;;;;;;11213472;26;20009;-29
2024/04/25 13:43:13;;;;;;;14.48;3.45;;;19.10;54.10;;;;;;11212789;26;20076;-28
2024/04/25 13:48:17;;;;;;;7.75;3.38;;;19.10;53.90;;;;;;11212573;26;20009;-29
2024/04/25 13:53:22;;;;;;;8.48;2.97;;;19.10;53.90;;;;;;11212432;26;20000;-28
2024/04/25 13:58:26;;;;;;;17.65;3.53;;;19.10;53.80;;;;;;11212636;26;20470;-29
2024/04/25 14:03:29;;;;;;;14.35;3.15;;;19.40;55.00;;;;;;11251743;26;20018;-29
2024/04/25 14:08:35;;;;;;;7.38;2.90;;;19.70;55.80;;;;;;11286281;26;20014;-27
2024/04/25 14:13:38;;;;;;;10.38;3.15;;;19.90;55.60;;;;;;11284816;26;20389;-27
2024/04/25 14:18:41;;;;;;;13.10;2.78;;;20.00;56.00;;;;;;11286172;26;20025;-28
2024/04/25 14:23:47;;;;;;;10.27;2.92;;;20.00;55.30;;;;;;11285954;26;20018;-26
2024/04/25 14:28:54;;;;;;;9.85;2.50;;;19.80;54.80;;;;;;11285944;26;20013;-26
2024/04/25 14:33:57;;;;;;;10.48;2.90;;;19.80;54.40;;;;;;11285554;26;20017;-27
2024/04/25 14:39:03;;;;;;;8.95;2.47;;;20.00;54.10;;;;;;11265430;26;20018;-28
2024/04/25 14:44:06;;;;;;;10.25;2.28;;;20.10;53.90;;;;;;11214719;26;20043;-26
2024/04/25 14:49:10;;;;;;;25.73;3.10;;;20.10;53.70;;;;;;11210779;26;20010;-26
2024/04/25 14:54:16;;;;;;;7.35;2.10;;;20.00;54.10;;;;;;11210487;26;20007;-26
2024/04/25 14:59:19;;;;;;;8.38;2.30;;;19.90;54.00;;;;;;11214210;26;20015;-29
2024/04/25 15:04:22;;;;;;;4.78;2.10;;;19.90;54.50;;;;;;11250631;26;20007;-30
2024/04/25 15:09:28;;;;;;;6.03;1.85;;;19.90;54.90;;;;;;11213994;26;20015;-26
2024/04/25 15:14:31;;;;;;;5.82;1.70;;;19.90;54.70;;;;;;11210087;26;20000;-30
2024/04/25 15:19:41;;;;;;;6.20;1.85;;;19.80;54.90;;;;;;11210011;26;20361;-28
2024/04/25 15:24:47;;;;;;;6.35;2.08;;;19.80;55.00;;;;;;11209589;26;20522;-29
2024/04/25 15:29:50;;;;;;;6.50;2.10;;;19.90;55.40;;;;;;11218412;26;20473;-29
2024/04/25 15:34:53;;;;;;;6.50;1.80;;;19.70;55.70;;;;;;11218932;26;20011;-28
2024/04/25 15:39:59;;;;;;;7.63;1.90;;;19.50;56.10;;;;;;11209366;26;20011;-26
2024/04/25 15:45:02;;;;;;;4.88;1.83;;;19.30;56.30;;;;;;11215160;26;20021;-28
2024/04/25 15:50:06;;;;;;;4.90;1.90;;;19.30;56.60;;;;;;11271535;26;20019;-28
2024/04/25 15:55:12;;;;;;;6.93;2.17;;;19.30;56.80;;;;;;11275366;26;20007;-27
2024/04/25 16:00:16;;;;;;;3.63;1.90;;;19.40;57.20;;;;;;11280003;26;20343;-27
2024/04/25 16:05:19;;;;;;;5.53;1.55;;;19.40;57.50;;;;;;11282781;26;20199;-26
2024/04/25 16:10:25;;;;;;;8.18;1.75;;;19.60;57.70;;;;;;11282648;26;20330;-27
2024/04/25 16:15:28;;;;;;;8.68;1.92;;;19.70;58.00;;;;;;11282092;26;20003;-26
2024/04/25 16:20:31;;;;;;;3.97;1.75;;;19.70;58.10;;;;;;11279996;26;19995;-27
2024/04/25 16:25:37;;;;;;;5.13;1.70;;;19.60;58.20;;;;;;11276462;26;19998;-26
2024/04/25 16:30:40;;;;;;;6.45;1.38;;;19.50;58.40;;;;;;11275209;26;20006;-27
2024/04/25 16:35:44;;;;;;;3.78;1.63;;;19.50;58.70;;;;;;11238927;26;20018;-27
2024/04/25 16:40:50;;;;;;;5.63;1.40;;;19.50;59.10;;;;;;11217764;26;20082;-27
2024/04/25 16:45:53;;;;;;;5.43;1.60;;;19.50;59.40;;;;;;11214387;26;20003;-28
2024/04/25 16:50:56;;;;;;;5.28;1.65;;;19.40;59.60;;;;;;11217707;26;20020;-26
2024/04/25 16:56:03;;;;;;;5.43;1.25;;;19.40;59.90;;;;;;11220904;26;20478;-26
2024/04/25 17:01:06;;;;;;;4.15;1.60;;;19.40;60.20;;;;;;11213964;26;20007;-26
2024/04/25 17:06:10;;;;;;;6.65;1.58;;;19.40;60.60;;;;;;11217333;26;20486;-30
2024/04/25 17:11:26;;;;;;;4.60;1.30;;;19.40;60.90;;;;;;11216655;26;20007;-29
2024/04/25 17:16:29;;;;;;;3.85;1.15;;;19.30;61.70;;;;;;11213608;26;20472;-28
2024/04/25 17:21:36;;;;;;;1.77;1.08;;;19.30;61.40;;;;;;11216771;26;20015;-30
2024/04/25 17:26:42;;;;;;;3.75;1.20;;;19.30;61.50;;;;;;11213422;26;20045;-29
2024/04/25 17:31:47;;;;;;;3.00;1.20;;;19.30;61.70;;;;;;11213242;26;19996;-28
2024/04/25 17:36:51;;;;;;;3.92;1.00;;;19.30;61.90;;;;;;11216002;26;20022;-26
2024/04/25 17:41:56;;;;;;;3.75;1.40;;;19.30;62.10;;;;;;11212941;26;19999;-28
2024/04/25 17:47:05;;;;;;;2.05;1.00;;;19.30;62.40;;;;;;11215318;26;20030;-28
2024/04/25 17:52:08;;;;;;;2.95;1.10;;;19.30;62.60;;;;;;11212457;26;19999;-27
2024/04/25 17:57:14;;;;;;;8.25;1.10;;;19.30;62.70;;;;;;11212322;26;19999;-28
2024/04/25 18:02:17;;;;;;;3.20;0.93;;;19.30;63.50;;;;;;11212325;26;20010;-29
2024/04/25 18:07:21;;;;;;;5.97;1.00;;;19.20;63.10;;;;;;11215391;26;20015;-28
2024/04/25 18:12:27;;;;;;;2.63;1.00;;;19.20;63.30;;;;;;11285145;26;20457;-28
2024/04/25 18:17:30;;;;;;;3.65;1.10;;;19.30;63.00;;;;;;11286286;26;20014;-27
2024/04/25 18:22:35;;;;;;;3.33;0.90;;;19.30;62.10;;;;;;11283574;26;20361;-28
2024/04/25 18:27:41;;;;;;;4.03;1.13;;;19.30;61.30;;;;;;11285302;26;19999;-27
2024/04/25 18:32:44;;;;;;;1.98;0.90;;;19.50;61.30;;;;;;11225270;26;20007;-30
2024/04/25 18:37:48;;;;;;;4.05;0.95;;;19.40;61.10;;;;;;11230076;26;20007;-29
2024/04/25 18:42:54;;;;;;;1.98;1.00;;;19.40;61.20;;;;;;11285619;26;20038;-26
2024/04/25 18:47:57;;;;;;;3.15;1.08;;;19.40;61.30;;;;;;11285302;26;20007;-27
2024/04/25 18:53:00;;;;;;;2.47;0.90;;;19.30;61.40;;;;;;11280119;26;20008;-29
2024/04/25 18:58:06;;;;;;;1.35;0.75;;;19.40;61.50;;;;;;11209597;26;20014;-27
2024/04/25 19:03:09;;;;;;;4.65;1.08;;;19.30;61.20;;;;;;11210665;26;20000;-28
2024/04/25 19:08:13;;;;;;;4.65;1.02;;;19.30;61.40;;;;;;11210852;26;20023;-26
2024/04/25 19:13:19;;;;;;;2.58;1.05;;;19.40;61.30;;;;;;11210209;26;20361;-28
2024/04/25 19:18:25;;;;;;;6.35;1.23;;;19.40;60.90;;;;;;11210020;26;20004;-28
2024/04/25 19:23:28;;;;;;;1.58;0.80;;;19.30;61.00;;;;;;11218488;26;20003;-32
2024/04/25 19:28:34;;;;;;;4.25;0.93;;;19.10;61.30;;;;;;11209790;26;20466;-29
2024/04/25 19:33:38;;;;;;;3.47;0.80;;;19.00;62.00;;;;;;11209369;26;20011;-26
2024/04/25 19:38:41;;;;;;;1.42;0.70;;;19.00;61.20;;;;;;11209656;26;20009;-28
2024/04/25 19:43:47;;;;;;;1.55;0.80;;;18.90;61.10;;;;;;11241246;26;20003;-29
2024/04/25 19:48:50;;;;;;;1.10;0.65;;;18.90;61.00;;;;;;11210873;26;20014;-26
2024/04/25 19:53:53;;;;;;;2.25;0.73;;;18.80;60.80;;;;;;11211762;26;20008;-29
2024/04/25 19:58:59;;;;;;;3.13;0.80;;;18.80;60.60;;;;;;11238362;26;20015;-25
2024/04/25 20:04:02;;;;;;;5.55;1.10;;;18.80;60.50;;;;;;11208244;26;20458;-26
2024/04/25 20:09:06;;;;;;;4.88;1.08;;;18.70;60.50;;;;;;11237061;26;20075;-29
2024/04/25 20:14:11;;;;;;;3.75;1.30;;;18.80;60.40;;;;;;11282212;26;20007;-27
2024/04/25 20:24:34;;;;;;;6.60;1.60;;;18.70;60.20;;;;;;11245583;26;20015;-26
2024/04/25 20:29:40;;;;;;;1.80;0.93;;;18.60;60.10;;;;;;11226256;26;20003;-32
2024/04/25 20:34:44;;;;;;;2.67;1.00;;;18.60;60.20;;;;;;11207129;26;20000;-27
2024/04/25 20:39:47;;;;;;;2.30;1.05;;;18.50;60.10;;;;;;11207186;26;20473;-26
2024/04/25 20:44:53;;;;;;;3.00;1.25;;;18.50;60.10;;;;;;11206831;26;20008;-27
2024/04/25 20:49:57;;;;;;;2.88;1.20;;;18.50;60.10;;;;;;11209133;26;20018;-26
2024/04/25 20:55:00;;;;;;;2.55;1.20;;;18.40;60.80;;;;;;11240787;26;19995;-28
2024/04/25 21:00:07;;;;;;;2.63;1.30;;;18.40;60.00;;;;;;11250527;26;20018;-28
2024/04/25 21:05:10;;;;;;;2.75;1.02;;;18.40;59.90;;;;;;11210213;26;20021;-28
2024/04/25 21:10:14;;;;;;;3.97;1.40;;;18.40;60.70;;;;;;11229941;26;20008;-27
2024/04/25 21:15:20;;;;;;;2.95;1.20;;;18.40;59.90;;;;;;11237446;26;20016;-29
2024/04/25 21:20:23;;;;;;;3.63;1.60;;;18.30;59.80;;;;;;11257909;26;20014;-24
2024/04/25 21:25:29;;;;;;;2.22;1.30;;;18.20;59.30;;;;;;11288240;26;20002;-29
2024/04/25 21:30:35;;;;;;;3.88;1.20;;;18.20;60.40;;;;;;11213251;26;20013;-27
2024/04/25 21:35:38;;;;;;;2.28;1.17;;;18.20;59.80;;;;;;11213471;26;20458;-28
2024/04/25 21:40:41;;;;;;;2.00;1.23;;;18.20;59.90;;;;;;11231404;26;20007;-29
2024/04/25 21:45:47;;;;;;;2.22;1.10;;;18.20;59.90;;;;;;11256746;26;20002;-28
2024/04/25 21:50:50;;;;;;;3.88;1.20;;;18.10;59.80;;;;;;11286928;26;19994;-30
2024/04/25 21:55:54;;;;;;;2.65;1.08;;;18.10;59.80;;;;;;11270612;26;20022;-28
2024/04/25 22:00:59;;;;;;;2.88;1.00;;;18.10;59.80;;;;;;11259903;26;20015;-27
2024/04/25 22:06:03;;;;;;;3.58;1.30;;;18.10;59.50;;;;;;11226429;26;19995;-27
2024/04/25 22:11:06;;;;;;;1.73;1.23;;;18.10;59.40;;;;;;11230791;26;20022;-29
2024/04/25 22:16:12;;;;;;;3.25;1.30;;;18.10;59.30;;;;;;11261847;26;20476;-27
2024/04/25 22:21:16;;;;;;;2.80;1.00;;;18.10;59.30;;;;;;11222644;26;19999;-28
2024/04/25 22:26:19;;;;;;;2.78;0.95;;;18.10;59.20;;;;;;11211660;26;19999;-28
2024/04/25 22:31:25;;;;;;;2.40;1.00;;;18.10;59.30;;;;;;11229022;26;20007;-25
2024/04/25 22:36:28;;;;;;;2.28;1.23;;;18.00;59.20;;;;;;11274561;26;20014;-28
2024/04/25 22:41:31;;;;;;;1.85;0.98;;;18.00;59.20;;;;;;11211260;26;20018;-28
2024/04/25 22:46:37;;;;;;;1.45;1.00;;;18.00;59.20;;;;;;11229315;26;20015;-28
2024/04/25 22:51:41;;;;;;;2.50;1.10;;;17.90;59.10;;;;;;11274143;26;20454;-24
2024/04/25 22:56:44;;;;;;;2.53;0.93;;;17.90;59.30;;;;;;11210965;26;19996;-27
2024/04/25 23:01:50;;;;;;;3.58;1.13;;;17.90;59.20;;;;;;11211348;26;20044;-27
2024/04/25 23:06:53;;;;;;;2.42;1.00;;;17.80;59.10;;;;;;11230886;26;20485;-28
2024/04/25 23:11:56;;;;;;;1.80;0.90;;;17.90;59.10;;;;;;11271149;26;19999;-27
2024/04/25 23:17:02;;;;;;;1.50;1.00;;;17.80;59.10;;;;;;11231770;26;20019;-27
2024/04/25 23:22:05;;;;;;;1.90;1.08;;;17.80;59.10;;;;;;11268720;26;20014;-25
2024/04/25 23:27:09;;;;;;;1.73;0.90;;;17.80;59.10;;;;;;11209777;26;20009;-24
2024/04/25 23:32:14;;;;;;;1.83;0.98;;;17.70;59.00;;;;;;11248542;26;20415;-28
2024/04/25 23:37:18;;;;;;;1.67;0.88;;;17.70;59.00;;;;;;11284035;26;20009;-26
2024/04/25 23:42:21;;;;;;;1.30;0.82;;;17.70;59.00;;;;;;11283220;26;19995;-28
2024/04/25 23:47:27;;;;;;;1.08;0.80;;;17.70;59.00;;;;;;11272096;26;20011;-27
2024/04/25 23:52:30;;;;;;;2.38;1.20;;;17.70;59.00;;;;;;11208895;26;19999;-26
2024/04/25 23:57:33;;;;;;;1.65;1.20;;;17.70;59.60;;;;;;11208779;26;20016;-27
